sensor_id;sensor_type;location;lat;lon;timestamp;temperature;humidity
51878;SHT31;37911;51.526;11.536;2023-08-06T00:00:15;17.57;74.80
51878;SHT31;37911;51.526;11.536;2023-08-06T00:03:19;17.50;75.33
51878;SHT31;37911;51.526;11.536;2023-08-06T00:06:22;17.45;76.11
51878;SHT31;37911;51.526;11.536;2023-08-06T00:09:26;17.47;76.36
51878;SHT31;37911;51.526;11.536;2023-08-06T00:12:30;17.45;76.82
51878;SHT31;37911;51.526;11.536;2023-08-06T00:15:36;17.42;77.30
51878;SHT31;37911;51.526;11.536;2023-08-06T00:18:40;17.38;77.63
51878;SHT31;37911;51.526;11.536;2023-08-06T00:21:43;17.35;77.76
51878;SHT31;37911;51.526;11.536;2023-08-06T00:24:47;17.32;77.57
51878;SHT31;37911;51.526;11.536;2023-08-06T00:27:50;17.21;77.85
51878;SHT31;37911;51.526;11.536;2023-08-06T00:30:57;17.06;79.17
51878;SHT31;37911;51.526;11.536;2023-08-06T00:34:00;17.04;79.82
51878;SHT31;37911;51.526;11.536;2023-08-06T00:37:04;17.06;80.67
51878;SHT31;37911;51.526;11.536;2023-08-06T00:40:08;17.00;81.92
51878;SHT31;37911;51.526;11.536;2023-08-06T00:43:11;16.94;81.79
51878;SHT31;37911;51.526;11.536;2023-08-06T00:46:17;16.93;82.81
51878;SHT31;37911;51.526;11.536;2023-08-06T00:49:21;16.91;83.05
51878;SHT31;37911;51.526;11.536;2023-08-06T00:52:25;16.91;83.20
51878;SHT31;37911;51.526;11.536;2023-08-06T00:55:29;16.93;83.26
51878;SHT31;37911;51.526;11.536;2023-08-06T00:58:32;16.88;83.78
51878;SHT31;37911;51.526;11.536;2023-08-06T01:01:39;16.84;83.53
51878;SHT31;37911;51.526;11.536;2023-08-06T01:04:42;16.77;84.00
51878;SHT31;37911;51.526;11.536;2023-08-06T01:07:51;16.77;84.15
51878;SHT31;37911;51.526;11.536;2023-08-06T01:11:06;16.75;84.73
51878;SHT31;37911;51.526;11.536;2023-08-06T01:14:15;16.72;84.62
51878;SHT31;37911;51.526;11.536;2023-08-06T01:17:25;16.73;85.22
51878;SHT31;37911;51.526;11.536;2023-08-06T01:20:32;16.72;84.50
51878;SHT31;37911;51.526;11.536;2023-08-06T01:23:35;16.77;83.98
51878;SHT31;37911;51.526;11.536;2023-08-06T01:26:45;16.72;84.98
51878;SHT31;37911;51.526;11.536;2023-08-06T01:30:03;16.52;85.50
51878;SHT31;37911;51.526;11.536;2023-08-06T01:33:14;16.52;85.98
51878;SHT31;37911;51.526;11.536;2023-08-06T01:36:22;16.59;85.81
51878;SHT31;37911;51.526;11.536;2023-08-06T01:39:26;16.60;85.62
51878;SHT31;37911;51.526;11.536;2023-08-06T01:42:30;16.67;85.53
51878;SHT31;37911;51.526;11.536;2023-08-06T01:45:33;16.43;85.84
51878;SHT31;37911;51.526;11.536;2023-08-06T01:48:37;16.52;85.62
51878;SHT31;37911;51.526;11.536;2023-08-06T01:51:43;16.63;85.71
51878;SHT31;37911;51.526;11.536;2023-08-06T01:54:46;16.63;85.92
51878;SHT31;37911;51.526;11.536;2023-08-06T01:57:50;16.62;85.71
51878;SHT31;37911;51.526;11.536;2023-08-06T02:00:53;16.60;85.83
51878;SHT31;37911;51.526;11.536;2023-08-06T02:03:58;16.56;85.31
51878;SHT31;37911;51.526;11.536;2023-08-06T02:07:06;16.36;86.56
51878;SHT31;37911;51.526;11.536;2023-08-06T02:10:09;16.42;86.86
51878;SHT31;37911;51.526;11.536;2023-08-06T02:13:13;16.39;86.68
51878;SHT31;37911;51.526;11.536;2023-08-06T02:16:16;16.32;86.64
51878;SHT31;37911;51.526;11.536;2023-08-06T02:19:20;16.33;86.33
51878;SHT31;37911;51.526;11.536;2023-08-06T02:22:26;16.46;86.55
51878;SHT31;37911;51.526;11.536;2023-08-06T02:25:29;16.51;86.47
51878;SHT31;37911;51.526;11.536;2023-08-06T02:28:34;16.55;86.64
51878;SHT31;37911;51.526;11.536;2023-08-06T02:31:37;16.56;86.20
51878;SHT31;37911;51.526;11.536;2023-08-06T02:34:41;16.48;86.08
51878;SHT31;37911;51.526;11.536;2023-08-06T02:37:47;16.52;86.49
51878;SHT31;37911;51.526;11.536;2023-08-06T02:40:50;16.56;86.69
51878;SHT31;37911;51.526;11.536;2023-08-06T02:43:53;16.53;86.53
51878;SHT31;37911;51.526;11.536;2023-08-06T02:46:57;16.45;86.39
51878;SHT31;37911;51.526;11.536;2023-08-06T02:50:00;16.43;86.77
51878;SHT31;37911;51.526;11.536;2023-08-06T02:53:08;16.45;86.78
51878;SHT31;37911;51.526;11.536;2023-08-06T02:56:12;16.53;86.92
51878;SHT31;37911;51.526;11.536;2023-08-06T02:59:32;16.51;86.61
51878;SHT31;37911;51.526;11.536;2023-08-06T03:02:43;16.45;86.72
51878;SHT31;37911;51.526;11.536;2023-08-06T03:06:12;16.48;86.57
51878;SHT31;37911;51.526;11.536;2023-08-06T03:09:24;16.46;86.75
51878;SHT31;37911;51.526;11.536;2023-08-06T03:12:27;16.49;86.92
51878;SHT31;37911;51.526;11.536;2023-08-06T03:15:33;16.52;86.60
51878;SHT31;37911;51.526;11.536;2023-08-06T03:18:36;16.55;86.41
51878;SHT31;37911;51.526;11.536;2023-08-06T03:21:42;16.46;86.51
51878;SHT31;37911;51.526;11.536;2023-08-06T03:24:52;16.38;86.91
51878;SHT31;37911;51.526;11.536;2023-08-06T03:27:59;16.41;87.09
51878;SHT31;37911;51.526;11.536;2023-08-06T03:31:03;16.43;86.92
51878;SHT31;37911;51.526;11.536;2023-08-06T03:34:12;16.38;87.27
51878;SHT31;37911;51.526;11.536;2023-08-06T03:37:16;16.46;86.83
51878;SHT31;37911;51.526;11.536;2023-08-06T03:40:22;16.42;87.00
51878;SHT31;37911;51.526;11.536;2023-08-06T03:43:26;16.39;86.79
51878;SHT31;37911;51.526;11.536;2023-08-06T03:46:29;16.42;86.77
51878;SHT31;37911;51.526;11.536;2023-08-06T03:49:36;16.38;87.05
51878;SHT31;37911;51.526;11.536;2023-08-06T03:52:39;16.36;87.23
51878;SHT31;37911;51.526;11.536;2023-08-06T03:55:45;16.30;87.33
51878;SHT31;37911;51.526;11.536;2023-08-06T03:58:49;16.28;86.64
51878;SHT31;37911;51.526;11.536;2023-08-06T04:01:52;16.29;86.77
51878;SHT31;37911;51.526;11.536;2023-08-06T04:04:57;16.25;86.79
51878;SHT31;37911;51.526;11.536;2023-08-06T04:08:00;16.29;86.65
51878;SHT31;37911;51.526;11.536;2023-08-06T04:11:07;16.19;87.25
51878;SHT31;37911;51.526;11.536;2023-08-06T04:14:11;16.23;86.93
51878;SHT31;37911;51.526;11.536;2023-08-06T04:17:14;16.26;87.01
51878;SHT31;37911;51.526;11.536;2023-08-06T04:20:20;16.26;86.92
51878;SHT31;37911;51.526;11.536;2023-08-06T04:23:24;16.22;86.86
51878;SHT31;37911;51.526;11.536;2023-08-06T04:26:33;16.22;86.50
51878;SHT31;37911;51.526;11.536;2023-08-06T04:29:38;16.21;86.65
51878;SHT31;37911;51.526;11.536;2023-08-06T04:32:42;16.16;86.67
51878;SHT31;37911;51.526;11.536;2023-08-06T04:35:45;16.15;87.30
51878;SHT31;37911;51.526;11.536;2023-08-06T04:38:49;16.16;86.95
51878;SHT31;37911;51.526;11.536;2023-08-06T04:41:55;16.08;87.20
51878;SHT31;37911;51.526;11.536;2023-08-06T04:45:00;16.08;87.12
51878;SHT31;37911;51.526;11.536;2023-08-06T04:48:04;16.13;87.14
51878;SHT31;37911;51.526;11.536;2023-08-06T04:51:08;16.16;86.67
51878;SHT31;37911;51.526;11.536;2023-08-06T04:54:11;16.09;86.21
51878;SHT31;37911;51.526;11.536;2023-08-06T04:57:17;16.02;86.62
51878;SHT31;37911;51.526;11.536;2023-08-06T05:00:20;16.05;86.96
51878;SHT31;37911;51.526;11.536;2023-08-06T05:03:24;16.04;87.26
51878;SHT31;37911;51.526;11.536;2023-08-06T05:06:27;16.08;86.56
51878;SHT31;37911;51.526;11.536;2023-08-06T05:09:31;16.08;86.60
51878;SHT31;37911;51.526;11.536;2023-08-06T05:12:37;16.01;86.62
51878;SHT31;37911;51.526;11.536;2023-08-06T05:15:41;16.05;85.87
51878;SHT31;37911;51.526;11.536;2023-08-06T05:18:46;16.04;85.89
51878;SHT31;37911;51.526;11.536;2023-08-06T05:21:49;16.06;86.16
51878;SHT31;37911;51.526;11.536;2023-08-06T05:24:53;16.12;85.94
51878;SHT31;37911;51.526;11.536;2023-08-06T05:27:59;16.12;85.83
51878;SHT31;37911;51.526;11.536;2023-08-06T05:31:03;16.18;85.58
51878;SHT31;37911;51.526;11.536;2023-08-06T05:34:07;16.22;85.87
51878;SHT31;37911;51.526;11.536;2023-08-06T05:37:10;16.29;86.02
51878;SHT31;37911;51.526;11.536;2023-08-06T05:40:14;16.35;85.67
51878;SHT31;37911;51.526;11.536;2023-08-06T05:43:20;16.30;86.05
51878;SHT31;37911;51.526;11.536;2023-08-06T05:46:23;16.35;85.54
51878;SHT31;37911;51.526;11.536;2023-08-06T05:49:27;16.42;85.25
51878;SHT31;37911;51.526;11.536;2023-08-06T05:52:30;16.39;85.79
51878;SHT31;37911;51.526;11.536;2023-08-06T05:55:34;16.43;85.13
51878;SHT31;37911;51.526;11.536;2023-08-06T05:58:41;16.39;85.47
51878;SHT31;37911;51.526;11.536;2023-08-06T06:01:44;16.52;85.03
51878;SHT31;37911;51.526;11.536;2023-08-06T06:04:48;16.53;84.90
51878;SHT31;37911;51.526;11.536;2023-08-06T06:07:51;16.55;84.87
51878;SHT31;37911;51.526;11.536;2023-08-06T06:10:54;16.51;85.23
51878;SHT31;37911;51.526;11.536;2023-08-06T06:14:01;16.69;85.01
51878;SHT31;37911;51.526;11.536;2023-08-06T06:17:04;16.75;84.58
51878;SHT31;37911;51.526;11.536;2023-08-06T06:20:08;16.83;84.74
51878;SHT31;37911;51.526;11.536;2023-08-06T06:23:12;16.97;83.92
51878;SHT31;37911;51.526;11.536;2023-08-06T06:26:15;17.00;84.42
51878;SHT31;37911;51.526;11.536;2023-08-06T06:29:21;17.10;83.93
51878;SHT31;37911;51.526;11.536;2023-08-06T06:32:25;17.08;84.21
51878;SHT31;37911;51.526;11.536;2023-08-06T06:35:28;17.24;83.69
51878;SHT31;37911;51.526;11.536;2023-08-06T06:38:32;17.28;83.73
51878;SHT31;37911;51.526;11.536;2023-08-06T06:41:35;17.38;83.04
51878;SHT31;37911;51.526;11.536;2023-08-06T06:44:51;17.37;82.24
51878;SHT31;37911;51.526;11.536;2023-08-06T06:47:54;17.37;82.29
51878;SHT31;37911;51.526;11.536;2023-08-06T06:50:58;17.48;82.52
51878;SHT31;37911;51.526;11.536;2023-08-06T06:54:02;17.54;82.43
51878;SHT31;37911;51.526;11.536;2023-08-06T06:57:05;17.65;82.83
51878;SHT31;37911;51.526;11.536;2023-08-06T07:00:13;17.75;82.42
51878;SHT31;37911;51.526;11.536;2023-08-06T07:03:16;17.77;81.34
51878;SHT31;37911;51.526;11.536;2023-08-06T07:06:19;17.89;81.16
51878;SHT31;37911;51.526;11.536;2023-08-06T07:09:23;17.99;81.25
51878;SHT31;37911;51.526;11.536;2023-08-06T07:12:26;18.08;80.83
51878;SHT31;37911;51.526;11.536;2023-08-06T07:15:32;18.13;81.41
51878;SHT31;37911;51.526;11.536;2023-08-06T07:18:36;18.13;79.76
51878;SHT31;37911;51.526;11.536;2023-08-06T07:21:39;18.23;80.61
51878;SHT31;37911;51.526;11.536;2023-08-06T07:24:43;18.36;80.85
51878;SHT31;37911;51.526;11.536;2023-08-06T07:27:46;18.39;80.13
51878;SHT31;37911;51.526;11.536;2023-08-06T07:30:52;18.46;80.48
51878;SHT31;37911;51.526;11.536;2023-08-06T07:33:56;18.57;79.44
51878;SHT31;37911;51.526;11.536;2023-08-06T07:36:59;18.54;78.51
51878;SHT31;37911;51.526;11.536;2023-08-06T07:40:03;18.57;77.29
51878;SHT31;37911;51.526;11.536;2023-08-06T07:43:07;18.50;76.53
51878;SHT31;37911;51.526;11.536;2023-08-06T07:46:13;18.60;76.65
51878;SHT31;37911;51.526;11.536;2023-08-06T07:49:16;18.59;76.00
51878;SHT31;37911;51.526;11.536;2023-08-06T07:52:20;18.73;76.49
51878;SHT31;37911;51.526;11.536;2023-08-06T07:55:24;18.78;76.90
51878;SHT31;37911;51.526;11.536;2023-08-06T07:58:28;19.10;76.57
51878;SHT31;37911;51.526;11.536;2023-08-06T08:01:35;19.31;75.51
51878;SHT31;37911;51.526;11.536;2023-08-06T08:04:38;19.36;76.36
51878;SHT31;37911;51.526;11.536;2023-08-06T08:07:42;19.72;75.90
51878;SHT31;37911;51.526;11.536;2023-08-06T08:10:45;19.82;75.05
51878;SHT31;37911;51.526;11.536;2023-08-06T08:13:48;20.13;73.77
51878;SHT31;37911;51.526;11.536;2023-08-06T08:16:55;20.27;72.92
51878;SHT31;37911;51.526;11.536;2023-08-06T08:19:59;20.27;72.09
51878;SHT31;37911;51.526;11.536;2023-08-06T08:23:02;20.54;72.94
51878;SHT31;37911;51.526;11.536;2023-08-06T08:26:06;21.04;70.09
51878;SHT31;37911;51.526;11.536;2023-08-06T08:29:09;21.17;68.75
51878;SHT31;37911;51.526;11.536;2023-08-06T08:32:15;21.17;67.99
51878;SHT31;37911;51.526;11.536;2023-08-06T08:35:18;21.09;67.88
51878;SHT31;37911;51.526;11.536;2023-08-06T08:38:22;20.91;68.19
51878;SHT31;37911;51.526;11.536;2023-08-06T08:41:27;20.90;69.10
51878;SHT31;37911;51.526;11.536;2023-08-06T08:44:31;21.07;68.82
51878;SHT31;37911;51.526;11.536;2023-08-06T08:47:41;21.08;68.80
51878;SHT31;37911;51.526;11.536;2023-08-06T08:50:47;21.08;68.52
51878;SHT31;37911;51.526;11.536;2023-08-06T08:53:52;21.50;66.68
51878;SHT31;37911;51.526;11.536;2023-08-06T08:56:56;22.04;64.76
51878;SHT31;37911;51.526;11.536;2023-08-06T09:00:00;22.39;64.45
51878;SHT31;37911;51.526;11.536;2023-08-06T09:03:06;22.57;64.02
51878;SHT31;37911;51.526;11.536;2023-08-06T09:06:10;22.47;63.40
51878;SHT31;37911;51.526;11.536;2023-08-06T09:09:17;22.64;63.24
51878;SHT31;37911;51.526;11.536;2023-08-06T09:12:24;22.95;63.06
51878;SHT31;37911;51.526;11.536;2023-08-06T09:15:28;23.23;62.51
51878;SHT31;37911;51.526;11.536;2023-08-06T09:18:34;23.57;63.05
51878;SHT31;37911;51.526;11.536;2023-08-06T09:21:38;23.66;60.06
51878;SHT31;37911;51.526;11.536;2023-08-06T09:24:42;23.62;60.45
51878;SHT31;37911;51.526;11.536;2023-08-06T09:27:46;23.74;61.18
51878;SHT31;37911;51.526;11.536;2023-08-06T09:30:50;23.70;60.18
51878;SHT31;37911;51.526;11.536;2023-08-06T09:33:59;23.43;61.10
51878;SHT31;37911;51.526;11.536;2023-08-06T09:37:03;23.06;61.98
51878;SHT31;37911;51.526;11.536;2023-08-06T09:40:24;22.94;63.14
51878;SHT31;37911;51.526;11.536;2023-08-06T09:43:28;22.90;63.09
51878;SHT31;37911;51.526;11.536;2023-08-06T09:46:32;22.83;62.65
51878;SHT31;37911;51.526;11.536;2023-08-06T09:49:44;22.83;63.04
51878;SHT31;37911;51.526;11.536;2023-08-06T09:52:48;23.02;62.70
51878;SHT31;37911;51.526;11.536;2023-08-06T09:55:51;23.30;62.70
51878;SHT31;37911;51.526;11.536;2023-08-06T09:58:55;23.52;61.07
51878;SHT31;37911;51.526;11.536;2023-08-06T10:01:59;23.65;59.83
51878;SHT31;37911;51.526;11.536;2023-08-06T10:05:06;24.17;58.56
51878;SHT31;37911;51.526;11.536;2023-08-06T10:08:09;24.37;57.72
51878;SHT31;37911;51.526;11.536;2023-08-06T10:11:13;24.82;55.89
51878;SHT31;37911;51.526;11.536;2023-08-06T10:14:23;25.39;54.95
51878;SHT31;37911;51.526;11.536;2023-08-06T10:17:28;25.84;53.45
51878;SHT31;37911;51.526;11.536;2023-08-06T10:20:35;26.05;50.83
51878;SHT31;37911;51.526;11.536;2023-08-06T10:23:40;25.74;50.81
51878;SHT31;37911;51.526;11.536;2023-08-06T10:26:43;25.93;51.79
51878;SHT31;37911;51.526;11.536;2023-08-06T10:29:47;25.56;49.54
51878;SHT31;37911;51.526;11.536;2023-08-06T10:32:52;25.87;49.70
51878;SHT31;37911;51.526;11.536;2023-08-06T10:36:03;25.73;50.91
51878;SHT31;37911;51.526;11.536;2023-08-06T10:39:13;25.43;50.66
51878;SHT31;37911;51.526;11.536;2023-08-06T10:42:21;24.94;51.82
51878;SHT31;37911;51.526;11.536;2023-08-06T10:45:25;24.91;49.97
51878;SHT31;37911;51.526;11.536;2023-08-06T10:48:30;25.39;51.37
51878;SHT31;37911;51.526;11.536;2023-08-06T10:51:37;25.36;51.46
51878;SHT31;37911;51.526;11.536;2023-08-06T10:54:40;25.56;52.04
51878;SHT31;37911;51.526;11.536;2023-08-06T10:57:44;25.57;48.37
51878;SHT31;37911;51.526;11.536;2023-08-06T11:00:47;25.60;48.69
51878;SHT31;37911;51.526;11.536;2023-08-06T11:03:51;25.71;46.33
51878;SHT31;37911;51.526;11.536;2023-08-06T11:06:58;25.83;47.23
51878;SHT31;37911;51.526;11.536;2023-08-06T11:10:02;26.14;46.71
51878;SHT31;37911;51.526;11.536;2023-08-06T11:13:06;26.01;43.58
51878;SHT31;37911;51.526;11.536;2023-08-06T11:16:10;26.20;42.72
51878;SHT31;37911;51.526;11.536;2023-08-06T11:19:14;26.53;42.91
51878;SHT31;37911;51.526;11.536;2023-08-06T11:22:21;27.37;42.73
51878;SHT31;37911;51.526;11.536;2023-08-06T11:25:24;27.77;41.29
51878;SHT31;37911;51.526;11.536;2023-08-06T11:28:28;27.67;41.22
51878;SHT31;37911;51.526;11.536;2023-08-06T11:31:31;27.60;40.49
51878;SHT31;37911;51.526;11.536;2023-08-06T11:34:35;27.39;39.92
51878;SHT31;37911;51.526;11.536;2023-08-06T11:37:43;26.96;39.73
51878;SHT31;37911;51.526;11.536;2023-08-06T11:40:47;26.35;40.75
51878;SHT31;37911;51.526;11.536;2023-08-06T11:43:51;25.83;45.24
51878;SHT31;37911;51.526;11.536;2023-08-06T11:46:55;25.42;47.13
51878;SHT31;37911;51.526;11.536;2023-08-06T11:50:01;25.63;46.98
51878;SHT31;37911;51.526;11.536;2023-08-06T11:53:12;25.30;46.79
51878;SHT31;37911;51.526;11.536;2023-08-06T11:56:16;24.92;48.35
51878;SHT31;37911;51.526;11.536;2023-08-06T11:59:19;24.95;47.94
51878;SHT31;37911;51.526;11.536;2023-08-06T12:02:23;24.65;48.29
51878;SHT31;37911;51.526;11.536;2023-08-06T12:05:31;24.54;49.12
51878;SHT31;37911;51.526;11.536;2023-08-06T12:08:37;24.52;49.76
51878;SHT31;37911;51.526;11.536;2023-08-06T12:11:42;24.38;49.04
51878;SHT31;37911;51.526;11.536;2023-08-06T12:14:45;24.30;53.52
51878;SHT31;37911;51.526;11.536;2023-08-06T12:17:49;24.04;55.03
51878;SHT31;37911;51.526;11.536;2023-08-06T12:20:52;24.01;56.70
51878;SHT31;37911;51.526;11.536;2023-08-06T12:23:58;23.96;55.13
51878;SHT31;37911;51.526;11.536;2023-08-06T12:27:02;24.09;53.76
51878;SHT31;37911;51.526;11.536;2023-08-06T12:30:06;24.18;52.40
51878;SHT31;37911;51.526;11.536;2023-08-06T12:33:10;24.45;50.98
51878;SHT31;37911;51.526;11.536;2023-08-06T12:36:13;25.06;48.64
51878;SHT31;37911;51.526;11.536;2023-08-06T12:39:19;25.93;48.93
51878;SHT31;37911;51.526;11.536;2023-08-06T12:42:23;26.52;43.62
51878;SHT31;37911;51.526;11.536;2023-08-06T12:45:27;26.24;43.76
51878;SHT31;37911;51.526;11.536;2023-08-06T12:48:30;25.66;45.02
51878;SHT31;37911;51.526;11.536;2023-08-06T12:51:34;26.01;42.84
51878;SHT31;37911;51.526;11.536;2023-08-06T12:54:41;26.21;44.16
51878;SHT31;37911;51.526;11.536;2023-08-06T12:57:46;25.88;43.23
51878;SHT31;37911;51.526;11.536;2023-08-06T13:00:49;26.07;42.95
51878;SHT31;37911;51.526;11.536;2023-08-06T13:03:53;26.25;40.86
51878;SHT31;37911;51.526;11.536;2023-08-06T13:06:56;26.40;42.11
51878;SHT31;37911;51.526;11.536;2023-08-06T13:10:03;26.13;42.41
51878;SHT31;37911;51.526;11.536;2023-08-06T13:13:06;25.96;43.03
51878;SHT31;37911;51.526;11.536;2023-08-06T13:16:10;25.71;43.16
51878;SHT31;37911;51.526;11.536;2023-08-06T13:19:14;26.34;42.72
51878;SHT31;37911;51.526;11.536;2023-08-06T13:22:17;26.72;41.86
51878;SHT31;37911;51.526;11.536;2023-08-06T13:25:23;26.71;41.82
51878;SHT31;37911;51.526;11.536;2023-08-06T13:28:27;26.37;40.45
51878;SHT31;37911;51.526;11.536;2023-08-06T13:31:30;26.28;41.62
51878;SHT31;37911;51.526;11.536;2023-08-06T13:34:37;26.20;40.93
51878;SHT31;37911;51.526;11.536;2023-08-06T13:37:40;26.21;41.23
51878;SHT31;37911;51.526;11.536;2023-08-06T13:40:48;26.34;41.20
51878;SHT31;37911;51.526;11.536;2023-08-06T13:43:51;26.24;40.20
51878;SHT31;37911;51.526;11.536;2023-08-06T13:46:55;26.72;40.48
51878;SHT31;37911;51.526;11.536;2023-08-06T13:49:59;26.37;40.30
51878;SHT31;37911;51.526;11.536;2023-08-06T13:53:03;26.63;41.25
51878;SHT31;37911;51.526;11.536;2023-08-06T13:56:09;27.03;41.07
51878;SHT31;37911;51.526;11.536;2023-08-06T13:59:15;27.49;39.78
51878;SHT31;37911;51.526;11.536;2023-08-06T14:02:20;27.68;38.72
51878;SHT31;37911;51.526;11.536;2023-08-06T14:05:24;27.67;40.11
51878;SHT31;37911;51.526;11.536;2023-08-06T14:08:27;27.68;38.03
51878;SHT31;37911;51.526;11.536;2023-08-06T14:11:33;27.64;39.74
51878;SHT31;37911;51.526;11.536;2023-08-06T14:14:37;27.54;39.18
51878;SHT31;37911;51.526;11.536;2023-08-06T14:17:40;27.10;38.86
51878;SHT31;37911;51.526;11.536;2023-08-06T14:20:44;27.16;39.23
51878;SHT31;37911;51.526;11.536;2023-08-06T14:23:47;26.81;39.63
51878;SHT31;37911;51.526;11.536;2023-08-06T14:26:53;26.28;41.02
51878;SHT31;37911;51.526;11.536;2023-08-06T14:29:57;25.94;42.25
51878;SHT31;37911;51.526;11.536;2023-08-06T14:33:01;26.34;43.19
51878;SHT31;37911;51.526;11.536;2023-08-06T14:36:04;26.76;42.52
51878;SHT31;37911;51.526;11.536;2023-08-06T14:39:08;26.92;41.01
51878;SHT31;37911;51.526;11.536;2023-08-06T14:42:14;26.99;39.69
51878;SHT31;37911;51.526;11.536;2023-08-06T14:45:17;26.65;40.94
51878;SHT31;37911;51.526;11.536;2023-08-06T14:48:20;26.73;41.63
51878;SHT31;37911;51.526;11.536;2023-08-06T14:51:24;26.72;41.61
51878;SHT31;37911;51.526;11.536;2023-08-06T14:54:28;26.88;40.65
51878;SHT31;37911;51.526;11.536;2023-08-06T14:57:34;26.91;41.89
51878;SHT31;37911;51.526;11.536;2023-08-06T15:00:37;26.85;41.97
51878;SHT31;37911;51.526;11.536;2023-08-06T15:03:41;26.21;42.86
51878;SHT31;37911;51.526;11.536;2023-08-06T15:06:44;26.05;43.66
51878;SHT31;37911;51.526;11.536;2023-08-06T15:09:48;25.84;43.70
51878;SHT31;37911;51.526;11.536;2023-08-06T15:12:56;25.84;44.72
51878;SHT31;37911;51.526;11.536;2023-08-06T15:16:00;25.43;45.26
51878;SHT31;37911;51.526;11.536;2023-08-06T15:19:03;25.02;47.85
51878;SHT31;37911;51.526;11.536;2023-08-06T15:22:06;24.60;49.11
51878;SHT31;37911;51.526;11.536;2023-08-06T15:25:12;24.60;49.73
51878;SHT31;37911;51.526;11.536;2023-08-06T15:28:18;24.47;49.98
51878;SHT31;37911;51.526;11.536;2023-08-06T15:31:22;24.16;50.74
51878;SHT31;37911;51.526;11.536;2023-08-06T15:34:25;24.42;50.55
51878;SHT31;37911;51.526;11.536;2023-08-06T15:37:29;24.48;50.02
51878;SHT31;37911;51.526;11.536;2023-08-06T15:40:33;24.51;49.97
51878;SHT31;37911;51.526;11.536;2023-08-06T15:43:39;24.38;49.75
51878;SHT31;37911;51.526;11.536;2023-08-06T15:46:42;24.27;49.62
51878;SHT31;37911;51.526;11.536;2023-08-06T15:49:46;24.17;50.82
51878;SHT31;37911;51.526;11.536;2023-08-06T15:52:49;24.11;50.59
51878;SHT31;37911;51.526;11.536;2023-08-06T15:55:53;23.77;54.70
51878;SHT31;37911;51.526;11.536;2023-08-06T15:59:25;23.25;56.36
51878;SHT31;37911;51.526;11.536;2023-08-06T16:02:28;22.79;58.31
51878;SHT31;37911;51.526;11.536;2023-08-06T16:05:32;22.31;59.37
51878;SHT31;37911;51.526;11.536;2023-08-06T16:08:36;21.85;60.78
51878;SHT31;37911;51.526;11.536;2023-08-06T16:11:40;21.78;61.27
51878;SHT31;37911;51.526;11.536;2023-08-06T16:14:46;21.60;61.45
51878;SHT31;37911;51.526;11.536;2023-08-06T16:17:50;21.35;62.42
51878;SHT31;37911;51.526;11.536;2023-08-06T16:20:53;21.11;64.13
51878;SHT31;37911;51.526;11.536;2023-08-06T16:23:57;20.83;68.38
51878;SHT31;37911;51.526;11.536;2023-08-06T16:27:00;20.70;69.18
51878;SHT31;37911;51.526;11.536;2023-08-06T16:30:08;20.65;68.99
51878;SHT31;37911;51.526;11.536;2023-08-06T16:33:11;20.26;68.74
51878;SHT31;37911;51.526;11.536;2023-08-06T16:36:15;20.03;70.93
51878;SHT31;37911;51.526;11.536;2023-08-06T16:39:18;19.97;72.59
51878;SHT31;37911;51.526;11.536;2023-08-06T16:42:24;20.14;71.02
51878;SHT31;37911;51.526;11.536;2023-08-06T16:45:30;20.29;69.74
51878;SHT31;37911;51.526;11.536;2023-08-06T16:48:38;20.34;68.13
51878;SHT31;37911;51.526;11.536;2023-08-06T16:51:42;20.27;68.27
51878;SHT31;37911;51.526;11.536;2023-08-06T16:54:46;20.32;67.53
51878;SHT31;37911;51.526;11.536;2023-08-06T16:57:49;20.34;67.61
51878;SHT31;37911;51.526;11.536;2023-08-06T17:00:55;20.34;67.47
51878;SHT31;37911;51.526;11.536;2023-08-06T17:04:03;20.27;68.49
51878;SHT31;37911;51.526;11.536;2023-08-06T17:07:07;20.24;68.31
51878;SHT31;37911;51.526;11.536;2023-08-06T17:10:10;19.94;67.30
51878;SHT31;37911;51.526;11.536;2023-08-06T17:13:17;19.85;69.31
51878;SHT31;37911;51.526;11.536;2023-08-06T17:16:23;19.89;69.66
51878;SHT31;37911;51.526;11.536;2023-08-06T17:19:26;19.80;70.07
51878;SHT31;37911;51.526;11.536;2023-08-06T17:22:30;19.72;74.56
51878;SHT31;37911;51.526;11.536;2023-08-06T17:25:33;19.57;76.14
51878;SHT31;37911;51.526;11.536;2023-08-06T17:28:37;19.31;76.01
51878;SHT31;37911;51.526;11.536;2023-08-06T17:31:43;19.01;76.65
51878;SHT31;37911;51.526;11.536;2023-08-06T17:34:47;18.88;75.84
51878;SHT31;37911;51.526;11.536;2023-08-06T17:37:50;18.78;76.28
51878;SHT31;37911;51.526;11.536;2023-08-06T17:40:55;18.71;77.04
51878;SHT31;37911;51.526;11.536;2023-08-06T17:44:00;18.46;77.75
51878;SHT31;37911;51.526;11.536;2023-08-06T17:47:06;18.44;78.47
51878;SHT31;37911;51.526;11.536;2023-08-06T17:50:10;18.42;78.83
51878;SHT31;37911;51.526;11.536;2023-08-06T17:53:13;18.42;78.97
51878;SHT31;37911;51.526;11.536;2023-08-06T17:56:16;18.39;78.64
51878;SHT31;37911;51.526;11.536;2023-08-06T17:59:20;17.88;78.52
51878;SHT31;37911;51.526;11.536;2023-08-06T18:02:26;17.21;79.71
51878;SHT31;37911;51.526;11.536;2023-08-06T18:05:29;16.94;82.11
51878;SHT31;37911;51.526;11.536;2023-08-06T18:08:35;16.62;82.35
51878;SHT31;37911;51.526;11.536;2023-08-06T18:11:38;16.49;83.28
51878;SHT31;37911;51.526;11.536;2023-08-06T18:14:42;16.41;83.07
51878;SHT31;37911;51.526;11.536;2023-08-06T18:17:48;16.42;84.18
51878;SHT31;37911;51.526;11.536;2023-08-06T18:20:51;16.52;83.05
51878;SHT31;37911;51.526;11.536;2023-08-06T18:23:55;16.60;83.09
51878;SHT31;37911;51.526;11.536;2023-08-06T18:26:58;16.55;82.30
51878;SHT31;37911;51.526;11.536;2023-08-06T18:30:02;16.52;82.90
51878;SHT31;37911;51.526;11.536;2023-08-06T18:33:08;16.52;83.82
51878;SHT31;37911;51.526;11.536;2023-08-06T18:36:12;16.56;83.85
51878;SHT31;37911;51.526;11.536;2023-08-06T18:39:15;16.55;83.48
51878;SHT31;37911;51.526;11.536;2023-08-06T18:42:19;16.55;83.35
51878;SHT31;37911;51.526;11.536;2023-08-06T18:45:23;16.52;84.37
51878;SHT31;37911;51.526;11.536;2023-08-06T18:48:29;16.52;84.56
51878;SHT31;37911;51.526;11.536;2023-08-06T18:51:32;16.49;85.11
51878;SHT31;37911;51.526;11.536;2023-08-06T18:54:37;16.57;85.51
51878;SHT31;37911;51.526;11.536;2023-08-06T18:57:42;16.49;85.54
51878;SHT31;37911;51.526;11.536;2023-08-06T19:00:45;16.49;85.70
51878;SHT31;37911;51.526;11.536;2023-08-06T19:03:51;16.48;85.92
51878;SHT31;37911;51.526;11.536;2023-08-06T19:06:55;16.48;85.92